• Join FlightAware (Why Join?)
  • Login
  • US Flag 
08:57PM EDT


 

Airport Tracker/Info


-or-


 

Live Flight TrackerFlight Track Log ✈ AWE3418 ✈ 30-Apr-2013 ✈ KCMH - KPHL

Flight Track Log - Related Links

Times and Time Zones

All times are in EDT time to prevent confusion due to time zone crossing. See the AWE3418 flight status page for this flight to view local times or setup timezone preferences in your user account.

Time Position Orientation Groundspeed Altitude Reporting Facility
EDT Latitude Longitude Course Direction KTS MPH feet Rate Location/Type
04:09PM 39.9925 -82.8708 83° East 152 175 1,500  Level Indianapolis Center
04:11PM 39.9928 -82.7922 90° East 190 219 3,300 2,280 Climbing Indianapolis Center
04:12PM 40.0546 -82.3368 79° East  Level FlightAware Approximate
04:12PM 39.9908 -82.6978 92° East 249 287 6,600  Level Indianapolis Center
04:13PM 40.0826 -82.1547 79° East  Level FlightAware Approximate
04:13PM 39.9881 -82.5947 92° East 280 322 9,800  Level Indianapolis Center
04:14PM 40.1057 -81.9714 81° East  Level FlightAware Approximate
04:14PM 39.9992 -82.4617 84° East 321 369 12,900  Level Indianapolis Center
04:15PM 40.1194 -81.7869 83° East  Level FlightAware Approximate
04:15PM 40.0175 -82.3397 79° East 339 390 15,400  Level Indianapolis Center
04:16PM 40.0367 -82.2136 79° East 349 402 18,000 2,280 Climbing Indianapolis Center
04:17PM 40.0553 -82.0811 80° East 364 419 20,200 2,160 Climbing Indianapolis Center
04:18PM 40.0742 -81.9422 80° East 379 436 22,500 2,160 Climbing Indianapolis Center
04:19PM 40.0942 -81.8022 79° East 387 445 24,700 1,980 Climbing Indianapolis Center
04:20PM 40.1133 -81.6603 80° East 392 451 26,600 1,920 Climbing Indianapolis Center
04:21PM 40.1372 -81.4933 79° East 397 457 28,700 1,860 Climbing Indianapolis Center
04:21PM 40.1431 -81.4575 78° East 393 452 29,000 1,020 Climbing Cleveland Center
04:22PM 40.1564 -81.3139 83° East 393 452 30,000 720 Climbing Cleveland Center
04:23PM 40.1678 -81.1564 85° East 400 460 30,500 480 Climbing Cleveland Center
04:24PM 40.1769 -81.0014 86° East 414 476 31,000 240 Climbing Cleveland Center
04:25PM 40.1856 -80.8439 86° East 424 488 31,000  Level Cleveland Center
04:26PM 40.1942 -80.6917 86° East 424 488 31,000  Level Cleveland Center
04:27PM 40.2047 -80.5342 85° East 424 488 31,000  Level Cleveland Center
04:28PM 40.2108 -80.3819 87° East 424 488 31,000  Level Cleveland Center
04:29PM 40.2189 -80.2242 86° East 424 488 31,000  Level Cleveland Center
04:30PM 40.2264 -80.0692 86° East 431 496 31,000  Level Cleveland Center
04:31PM 40.2361 -79.9142 85° East 425 489 31,000  Level Cleveland Center
04:32PM 40.2436 -79.7697 86° East 430 495 31,000  Level Cleveland Center
04:33PM 40.2506 -79.6119 87° East 430 495 31,000  Level Cleveland Center
04:34PM 40.2575 -79.4514 87° East 430 495 31,000  Level Cleveland Center
04:35PM 40.2600 -79.2936 89° East 430 495 31,000  Level Cleveland Center
04:36PM 40.2664 -79.1356 87° East 430 495 31,000  Level Cleveland Center
04:37PM 40.2725 -78.9747 87° East 435 501 31,000  Level Cleveland Center
04:38PM 40.2828 -78.8142 85° East 440 506 31,000  Level Cleveland Center
04:39PM 40.2886 -78.6533 87° East 440 506 31,000 -480 Level Cleveland Center
04:41PM 40.3008 -78.2969 87° East 442 509 29,600 -1,260 Descending New York Center
04:42PM 40.3083 -78.1478 86° East 447 514 27,200 -2,340 Descending New York Center
04:43PM 40.3117 -77.9903 88° East 447 514 25,000 -1,140 Descending New York Center
04:44PM 40.3131 -77.8297 89° East 440 506 25,000  Level New York Center
04:45PM 40.3100 -77.6714 91° East 440 506 25,000 -960 Level New York Center
04:46PM 40.3086 -77.5133 91° East 440 506 23,100 -2,640 Descending New York Center
04:47PM 40.2967 -77.3569 96° East 434 499 19,700 -2,520 Descending New York Center
04:48PM 40.2756 -77.2081 100° East 421 484 18,100 -900 Descending New York Center
04:49PM 40.2550 -77.0511 100° East 403 464 18,000 -60 Descending New York Center
04:50PM 40.2356 -76.9053 100° East 398 458 18,000  Level New York Center
04:51PM 40.2178 -76.7622 99° East 403 464 18,000 -300 Level New York Center
04:52PM 40.2014 -76.6303 99° East 403 464 17,500 -1,620 Descending New York Center
04:53PM 40.1819 -76.4764 99° East 389 448 14,900 -2,520 Descending New York Center
04:54PM 40.1650 -76.3475 100° East 372 428 12,600 -1,680 Descending New York Center
04:55PM 40.1475 -76.2347 101° East 337 388 11,600 -1,020 Descending New York Center
04:56PM 40.1372 -76.1386 98° East 300 345 10,600 -1,380 Descending New York Center
04:57PM 40.1211 -76.0369 102° East 286 329 8,900 -1,620 Descending New York Center
04:58PM 40.1069 -75.9300 100° East 275 316 7,300 -1,440 Descending New York Center
04:59PM 40.0942 -75.8422 101° East 275 316 6,100 -720 Descending New York Center
05:00PM 40.0692 -75.7456 109° East 264 304 6,000 -60 Descending New York Center
05:01PM 40.0097 -75.7197 162° South 233 268 6,000 -720 Level New York Center
05:02PM 39.9619 -75.6622 137° Southeast 225 259 4,600 -1,020 Descending New York Center
05:03PM 39.9289 -75.6083 129° Southeast 212 244 4,000 -600 Descending New York Center
05:04PM 39.8856 -75.5431 131° Southeast 212 244 3,500 -600 Descending New York Center
05:05PM 39.8564 -75.4925 127° Southeast 194 223 2,900 -840 Descending New York Center
05:06PM 39.8500 -75.4833 132° Southeast 152 175 2,500 -1,620 Descending Philadelphia TRACON